Time;durP1;ratioP1;P1;durP2;ratioP2;P2;SDS_P1;SDS_P2;PMS_P1;PMS_P2;Temp;Humidity;BMP_temperature;BMP_pressure;BME280_temperature;BME280_humidity;BME280_pressure;Samples;Min_cycle;Max_cycle;Signal;HPM_P1;HPM_P2
2022/05/11 00:01:46;;;;;;;6.32;4.28;;;;;;;;;;5073778;28;20502;-75
2022/05/11 00:04:12;;;;;;;9.65;4.45;;;;;;;;;;5072281;28;20020;-74
2022/05/11 00:06:38;;;;;;;6.70;4.80;;;;;;;;;;5073804;28;20036;-72
2022/05/11 00:09:05;;;;;;;10.50;4.45;;;;;;;;;;5072660;28;20030;-73
2022/05/11 00:11:31;;;;;;;10.27;4.75;;;;;;;;;;5065112;28;20055;-74
2022/05/11 00:13:57;;;;;;;7.63;4.93;;;;;;;;;;5073371;28;20475;-74
2022/05/11 00:16:26;;;;;;;9.32;4.60;;;;;;;;;;5072895;28;20036;-74
2022/05/11 00:18:51;;;;;;;13.40;4.72;;;;;;;;;;5073531;28;20519;-74
2022/05/11 00:21:17;;;;;;;11.50;4.47;;;;;;;;;;5072650;28;20119;-72
2022/05/11 00:23:43;;;;;;;9.07;4.57;;;;;;;;;;5072471;28;20028;-73
2022/05/11 00:26:09;;;;;;;9.43;4.68;;;;;;;;;;5047315;28;20025;-74
2022/05/11 00:28:34;;;;;;;6.32;4.38;;;;;;;;;;5070667;28;20086;-74
2022/05/11 00:31:00;;;;;;;6.80;4.22;;;;;;;;;;5071207;28;20031;-75
2022/05/11 00:33:26;;;;;;;7.75;4.93;;;;;;;;;;5039151;28;20112;-73
2022/05/11 00:35:51;;;;;;;8.23;5.25;;;;;;;;;;5055833;28;20051;-73
2022/05/11 00:38:18;;;;;;;9.35;5.00;;;;;;;;;;5072502;28;20545;-71
2022/05/11 00:40:44;;;;;;;8.38;4.60;;;;;;;;;;5071022;28;20160;-74
2022/05/11 00:43:10;;;;;;;8.48;4.95;;;;;;;;;;5072231;28;20102;-73
2022/05/11 00:45:38;;;;;;;12.07;4.18;;;;;;;;;;5079922;28;20024;-72
2022/05/11 00:50:49;;;;;;;5.15;4.13;;;;;;;;;;5062007;28;20124;-73
2022/05/11 00:53:17;;;;;;;8.50;4.53;;;;;;;;;;5077875;28;20056;-74
2022/05/11 00:55:48;;;;;;;10.18;4.88;;;;;;;;;;5044701;28;20021;-73
2022/05/11 00:58:14;;;;;;;11.77;4.53;;;;;;;;;;5050235;28;20031;-73
2022/05/11 01:00:42;;;;;;;10.68;4.53;;;;;;;;;;5073464;28;20032;-74
2022/05/11 01:03:10;;;;;;;8.10;4.65;;;;;;;;;;5071849;28;20040;-74
2022/05/11 01:05:37;;;;;;;10.23;6.32;;;;;;;;;;5043340;28;20092;-74
2022/05/11 01:08:02;;;;;;;11.68;5.10;;;;;;;;;;5073421;28;20134;-75
2022/05/11 01:10:30;;;;;;;7.63;4.50;;;;;;;;;;5056374;28;20078;-74
2022/05/11 01:12:58;;;;;;;10.70;4.25;;;;;;;;;;5072231;28;20025;-74
2022/05/11 01:15:25;;;;;;;6.60;4.45;;;;;;;;;;5045910;28;20028;-74
2022/05/11 01:17:51;;;;;;;5.50;4.15;;;;;;;;;;5072281;28;20028;-73
2022/05/11 01:20:21;;;;;;;10.02;4.75;;;;;;;;;;5072146;28;20233;-74
2022/05/11 01:22:51;;;;;;;8.88;4.65;;;;;;;;;;5072208;28;20104;-73
2022/05/11 01:25:20;;;;;;;8.00;4.28;;;;;;;;;;5071030;28;20594;-73
2022/05/11 01:27:46;;;;;;;;;;;;;;;;;;5071529;28;20032;-73
2022/05/11 01:30:13;;;;;;;10.27;4.43;;;;;;;;;;5071008;28;19908;-75
2022/05/11 01:32:39;;;;;;;12.85;4.53;;;;;;;;;;5056176;28;20029;-74
2022/05/11 01:35:09;;;;;;;10.10;4.80;;;;;;;;;;5072380;28;20044;-73
2022/05/11 01:37:50;;;;;;;6.18;4.38;;;;;;;;;;5071702;28;20067;-75
2022/05/11 01:40:15;;;;;;;8.80;4.50;;;;;;;;;;5071524;28;20051;-73
2022/05/11 01:42:41;;;;;;;10.68;4.43;;;;;;;;;;5071663;28;20491;-72
2022/05/11 01:45:07;;;;;;;7.80;4.55;;;;;;;;;;5072106;28;20028;-74
2022/05/11 01:47:33;;;;;;;9.35;4.10;;;;;;;;;;5071959;28;20029;-74
2022/05/11 01:49:58;;;;;;;7.53;4.93;;;;;;;;;;5049671;28;20036;-75
2022/05/11 01:52:24;;;;;;;7.93;4.43;;;;;;;;;;5050611;28;20029;-73
2022/05/11 01:54:50;;;;;;;9.05;4.47;;;;;;;;;;5034327;28;20495;-73
2022/05/11 01:57:15;;;;;;;6.97;4.20;;;;;;;;;;5051699;28;20037;-73
2022/05/11 01:59:41;;;;;;;7.18;4.10;;;;;;;;;;5050324;28;20114;-74
2022/05/11 02:02:06;;;;;;;7.10;4.20;;;;;;;;;;5050456;28;20025;-72
2022/05/11 02:10:06;;;;;;;7.00;4.47;;;;;;;;;;5034280;28;20029;-77
2022/05/11 02:12:31;;;;;;;6.82;3.92;;;;;;;;;;5017631;28;20086;-79
2022/05/11 02:14:58;;;;;;;8.73;4.30;;;;;;;;;;5051630;28;20122;-78
2022/05/11 02:17:23;;;;;;;7.20;4.32;;;;;;;;;;5051782;28;20159;-80
2022/05/11 02:19:49;;;;;;;5.93;4.20;;;;;;;;;;5034021;28;20111;-79
2022/05/11 02:22:14;;;;;;;8.48;4.45;;;;;;;;;;5042783;28;20029;-78
2022/05/11 02:24:40;;;;;;;10.13;4.57;;;;;;;;;;5038266;28;20555;-76
2022/05/11 02:27:05;;;;;;;6.68;4.38;;;;;;;;;;5030442;28;20034;-78
2022/05/11 02:29:31;;;;;;;7.43;4.65;;;;;;;;;;5030653;28;20029;-78
2022/05/11 02:31:56;;;;;;;8.25;4.72;;;;;;;;;;5030861;28;20481;-78
2022/05/11 02:37:05;;;;;;;7.80;4.20;;;;;;;;;;5030582;28;20420;-77
2022/05/11 02:39:31;;;;;;;7.90;4.80;;;;;;;;;;5038368;28;20029;-78
2022/05/11 02:41:56;;;;;;;6.97;4.85;;;;;;;;;;5039321;28;20025;-78
2022/05/11 02:44:22;;;;;;;7.88;4.53;;;;;;;;;;5031412;28;20030;-76
2022/05/11 02:46:47;;;;;;;10.00;4.43;;;;;;;;;;5030227;28;20080;-77
2022/05/11 02:49:13;;;;;;;9.18;4.47;;;;;;;;;;5014036;28;20116;-77
2022/05/11 02:51:39;;;;;;;10.02;4.78;;;;;;;;;;5031428;28;20549;-77
2022/05/11 02:54:07;;;;;;;8.82;4.88;;;;;;;;;;5034980;28;20098;-77
2022/05/11 02:56:36;;;;;;;7.10;4.43;;;;;;;;;;5013669;28;20123;-78
2022/05/11 02:59:02;;;;;;;13.43;5.43;;;;;;;;;;5054312;28;20086;-78
2022/05/11 03:01:27;;;;;;;13.77;5.10;;;;;;;;;;5055424;28;20032;-77
2022/05/11 03:03:53;;;;;;;7.22;4.20;;;;;;;;;;5053830;28;20086;-76
2022/05/11 03:06:18;;;;;;;6.60;4.35;;;;;;;;;;5054885;28;20515;-77
2022/05/11 03:08:44;;;;;;;8.85;5.22;;;;;;;;;;5054926;28;20060;-77
2022/05/11 03:11:09;;;;;;;6.93;4.70;;;;;;;;;;5052701;28;20438;-76
2022/05/11 03:13:35;;;;;;;7.82;5.15;;;;;;;;;;5043299;28;20542;-77
2022/05/11 03:16:01;;;;;;;10.23;5.00;;;;;;;;;;5034565;28;20052;-77
2022/05/11 03:18:26;;;;;;;12.60;5.63;;;;;;;;;;5033485;28;20033;-77
2022/05/11 03:20:55;;;;;;;13.30;4.90;;;;;;;;;;5016928;28;20507;-77
2022/05/11 03:23:20;;;;;;;10.27;4.80;;;;;;;;;;5033104;28;20049;-78
2022/05/11 03:25:45;;;;;;;9.52;4.95;;;;;;;;;;5033073;28;20492;-76
2022/05/11 03:28:14;;;;;;;9.18;4.75;;;;;;;;;;5021052;28;20029;-77
2022/05/11 03:30:39;;;;;;;7.47;4.25;;;;;;;;;;5042538;28;20542;-76
2022/05/11 03:35:49;;;;;;;7.70;4.63;;;;;;;;;;5033874;28;20473;-78
2022/05/11 03:38:20;;;;;;;13.73;5.30;;;;;;;;;;5002290;28;20140;-78
2022/05/11 03:40:46;;;;;;;7.72;5.50;;;;;;;;;;5034602;28;20091;-77
2022/05/11 03:43:11;;;;;;;15.48;5.47;;;;;;;;;;5016975;28;20530;-77
2022/05/11 03:45:37;;;;;;;16.08;5.80;;;;;;;;;;5040988;28;20037;-76
2022/05/11 03:48:03;;;;;;;8.80;4.47;;;;;;;;;;5033145;28;20069;-77
2022/05/11 03:50:29;;;;;;;9.30;5.07;;;;;;;;;;5033084;28;20053;-79
2022/05/11 03:52:55;;;;;;;12.30;5.47;;;;;;;;;;5032722;28;20065;-77
2022/05/11 03:55:22;;;;;;;13.57;4.70;;;;;;;;;;5032875;28;20049;-77
2022/05/11 03:57:47;;;;;;;9.85;5.15;;;;;;;;;;5032764;28;20469;-78
2022/05/11 04:00:15;;;;;;;7.93;4.70;;;;;;;;;;5038493;28;20029;-80
2022/05/11 04:02:44;;;;;;;9.40;5.30;;;;;;;;;;5042764;28;20039;-79
2022/05/11 04:05:16;;;;;;;12.75;5.97;;;;;;;;;;5019221;28;20041;-78
2022/05/11 04:07:42;;;;;;;13.73;5.20;;;;;;;;;;4999809;28;20044;-78
2022/05/11 04:10:08;;;;;;;11.55;5.93;;;;;;;;;;5032717;28;20029;-78
2022/05/11 04:12:34;;;;;;;12.35;5.20;;;;;;;;;;5034008;28;20473;-79
2022/05/11 04:15:03;;;;;;;11.98;5.10;;;;;;;;;;5035054;28;20040;-79
2022/05/11 04:17:28;;;;;;;9.52;5.50;;;;;;;;;;5019106;28;20029;-79
2022/05/11 04:19:54;;;;;;;12.85;5.80;;;;;;;;;;5053824;28;20029;-78
2022/05/11 04:22:27;;;;;;;12.25;6.07;;;;;;;;;;5054198;28;20425;-78
2022/05/11 04:24:56;;;;;;;8.50;5.10;;;;;;;;;;5052963;28;20072;-77
2022/05/11 04:27:21;;;;;;;10.23;5.25;;;;;;;;;;5051742;28;20033;-76
2022/05/11 04:29:50;;;;;;;;;;;;;;;;;;5036556;28;20041;-77
2022/05/11 04:32:15;;;;;;;8.52;5.10;;;;;;;;;;5053212;28;19958;-77
2022/05/11 04:34:41;;;;;;;9.40;4.90;;;;;;;;;;5043691;28;20017;-77
2022/05/11 04:37:07;;;;;;;11.90;4.85;;;;;;;;;;5038849;28;20033;-79
2022/05/11 04:39:33;;;;;;;10.48;5.10;;;;;;;;;;5034281;28;20384;-79
2022/05/11 04:41:59;;;;;;;13.40;5.05;;;;;;;;;;5035776;28;20065;-78
2022/05/11 04:44:24;;;;;;;9.05;5.25;;;;;;;;;;5034507;28;20021;-79
2022/05/11 04:46:50;;;;;;;11.15;5.85;;;;;;;;;;5039122;28;20037;-77
2022/05/11 04:49:25;;;;;;;12.40;5.43;;;;;;;;;;5017150;28;20067;-78
2022/05/11 04:51:58;;;;;;;9.38;5.55;;;;;;;;;;5028205;28;20037;-78
2022/05/11 04:54:23;;;;;;;13.00;4.70;;;;;;;;;;5053236;28;20033;-76
2022/05/11 04:56:48;;;;;;;8.15;5.50;;;;;;;;;;5053539;28;20033;-76
2022/05/11 04:59:14;;;;;;;12.13;5.60;;;;;;;;;;5052599;28;20249;-78
2022/05/11 05:01:45;;;;;;;10.82;6.10;;;;;;;;;;5023196;28;20045;-76
2022/05/11 05:04:10;;;;;;;13.27;5.75;;;;;;;;;;5050381;28;20475;-78
2022/05/11 05:06:36;;;;;;;14.82;5.55;;;;;;;;;;5043234;28;20029;-77
2022/05/11 05:09:02;;;;;;;9.35;5.05;;;;;;;;;;5052031;28;20036;-79
2022/05/11 05:11:28;;;;;;;13.20;4.68;;;;;;;;;;5052240;28;20035;-78
2022/05/11 05:13:53;;;;;;;10.95;5.50;;;;;;;;;;5051669;28;20029;-77
2022/05/11 05:16:19;;;;;;;8.30;4.72;;;;;;;;;;5051857;28;20025;-78
2022/05/11 05:18:44;;;;;;;12.45;5.00;;;;;;;;;;5037565;28;20033;-77
2022/05/11 05:21:09;;;;;;;13.07;5.10;;;;;;;;;;5055713;28;20083;-78
2022/05/11 05:23:35;;;;;;;10.38;4.72;;;;;;;;;;5044350;28;20555;-78
2022/05/11 05:26:02;;;;;;;6.30;4.68;;;;;;;;;;5033721;28;20492;-79
2022/05/11 05:31:15;;;;;;;10.32;5.22;;;;;;;;;;5031547;28;20040;-79
2022/05/11 05:33:40;;;;;;;15.88;5.25;;;;;;;;;;5032011;28;20461;-78
2022/05/11 05:36:06;;;;;;;13.00;5.20;;;;;;;;;;5030558;28;20032;-78
2022/05/11 05:38:32;;;;;;;11.90;5.50;;;;;;;;;;5031980;28;20032;-78
2022/05/11 05:40:58;;;;;;;10.63;5.65;;;;;;;;;;5043585;28;20033;-78
2022/05/11 05:43:24;;;;;;;10.20;5.18;;;;;;;;;;5011621;28;20057;-79
2022/05/11 05:45:51;;;;;;;10.57;4.85;;;;;;;;;;5030219;28;20523;-78
2022/05/11 05:48:18;;;;;;;10.05;5.35;;;;;;;;;;5014437;28;20048;-78
2022/05/11 05:50:43;;;;;;;13.15;4.85;;;;;;;;;;5032453;28;20076;-79
2022/05/11 05:53:09;;;;;;;7.47;4.75;;;;;;;;;;5030055;28;20519;-77
2022/05/11 05:55:34;;;;;;;9.48;4.55;;;;;;;;;;5036268;28;20457;-78
2022/05/11 05:58:00;;;;;;;13.13;5.30;;;;;;;;;;5043625;28;20029;-77
2022/05/11 06:00:26;;;;;;;10.27;5.40;;;;;;;;;;5052292;28;20048;-76
2022/05/11 06:02:53;;;;;;;11.88;5.28;;;;;;;;;;5050122;28;20032;-76
2022/05/11 06:05:19;;;;;;;10.48;5.13;;;;;;;;;;5050820;28;20028;-77
2022/05/11 06:07:49;;;;;;;9.15;4.85;;;;;;;;;;5017761;28;20037;-77
2022/05/11 06:10:15;;;;;;;9.45;4.53;;;;;;;;;;5049940;28;20029;-77
2022/05/11 06:12:40;;;;;;;11.52;5.07;;;;;;;;;;5034093;28;20024;-77
2022/05/11 06:15:06;;;;;;;10.45;4.38;;;;;;;;;;5050521;28;20383;-77
2022/05/11 06:17:33;;;;;;;14.35;6.10;;;;;;;;;;5052006;28;20067;-78
2022/05/11 06:19:58;;;;;;;17.50;5.57;;;;;;;;;;5033693;28;20563;-76
2022/05/11 06:22:27;;;;;;;20.00;5.47;;;;;;;;;;5033654;28;20133;-76
2022/05/11 06:24:53;;;;;;;16.02;5.03;;;;;;;;;;5050416;28;20037;-77
2022/05/11 06:27:20;;;;;;;13.85;5.43;;;;;;;;;;5047899;28;20472;-75
2022/05/11 06:29:52;;;;;;;12.52;5.05;;;;;;;;;;5046340;28;20032;-76
2022/05/11 06:32:22;;;;;;;11.20;5.20;;;;;;;;;;5055590;28;20033;-78
2022/05/11 06:34:48;;;;;;;9.20;5.35;;;;;;;;;;5055605;28;20481;-77
2022/05/11 06:37:13;;;;;;;12.82;4.60;;;;;;;;;;5037643;28;20055;-78
2022/05/11 06:39:42;;;;;;;13.77;5.20;;;;;;;;;;5054551;28;20067;-78
2022/05/11 06:42:08;;;;;;;;;;;;;;;;;;5054549;28;20082;-78
2022/05/11 06:44:34;;;;;;;11.88;5.18;;;;;;;;;;5045157;28;19905;-78
2022/05/11 06:46:59;;;;;;;12.13;5.05;;;;;;;;;;5023611;28;20049;-76
2022/05/11 06:49:25;;;;;;;9.77;5.43;;;;;;;;;;5034393;28;20243;-77
2022/05/11 06:51:51;;;;;;;12.10;5.60;;;;;;;;;;5033780;28;20029;-76
2022/05/11 06:59:46;;;;;;;10.07;5.35;;;;;;;;;;5034686;28;20036;-76
2022/05/11 07:02:12;;;;;;;12.05;5.30;;;;;;;;;;5047023;28;20384;-77
2022/05/11 07:04:37;;;;;;;7.43;4.47;;;;;;;;;;5035588;28;20472;-78
2022/05/11 07:07:04;;;;;;;9.48;4.45;;;;;;;;;;5017076;28;20041;-76
2022/05/11 07:09:31;;;;;;;13.38;4.45;;;;;;;;;;5033489;28;20018;-77
2022/05/11 07:14:46;;;;;;;7.68;4.10;;;;;;;;;;5033745;28;20256;-77
2022/05/11 07:17:30;;;;;;;10.02;4.30;;;;;;;;;;5040075;28;20047;-77
2022/05/11 07:19:56;;;;;;;16.23;4.70;;;;;;;;;;5047503;28;20114;-79
2022/05/11 07:22:22;;;;;;;10.13;4.90;;;;;;;;;;5041265;28;20033;-78
2022/05/11 07:24:47;;;;;;;15.23;5.38;;;;;;;;;;5061421;28;20021;-77
2022/05/11 07:27:12;;;;;;;10.68;4.35;;;;;;;;;;5059853;28;20044;-78
2022/05/11 07:29:38;;;;;;;6.50;4.30;;;;;;;;;;5054600;28;20025;-78
2022/05/11 07:32:04;;;;;;;6.53;3.72;;;;;;;;;;5052045;28;20392;-79
2022/05/11 07:34:29;;;;;;;10.65;4.85;;;;;;;;;;5029234;28;20492;-77
2022/05/11 07:36:55;;;;;;;10.18;4.20;;;;;;;;;;5034234;28;20126;-75
2022/05/11 07:39:23;;;;;;;8.68;4.63;;;;;;;;;;5033036;28;20029;-79
2022/05/11 07:41:49;;;;;;;12.68;4.30;;;;;;;;;;5035020;28;20029;-78
2022/05/11 07:44:15;;;;;;;14.35;4.00;;;;;;;;;;5034710;28;20069;-77
2022/05/11 07:46:42;;;;;;;12.70;3.97;;;;;;;;;;5032956;28;20033;-77
2022/05/11 07:49:07;;;;;;;9.20;3.63;;;;;;;;;;5022678;28;20097;-77
2022/05/11 07:51:35;;;;;;;12.60;4.05;;;;;;;;;;5045990;28;20025;-79
2022/05/11 07:54:03;;;;;;;11.57;4.15;;;;;;;;;;5052822;28;20021;-77
2022/05/11 08:01:58;;;;;;;9.55;4.07;;;;;;;;;;5052993;28;20032;-78
2022/05/11 08:04:23;;;;;;;12.43;4.00;;;;;;;;;;5052097;28;20029;-78
2022/05/11 08:06:49;;;;;;;8.10;4.50;;;;;;;;;;5043934;28;20503;-77
2022/05/11 08:09:14;;;;;;;13.98;4.13;;;;;;;;;;5053987;28;20389;-78
2022/05/11 08:11:40;;;;;;;9.25;3.88;;;;;;;;;;5065156;22;20037;-74
2022/05/11 08:14:05;;;;;;;6.50;3.58;;;;;;;;;;5051719;28;20384;-74
2022/05/11 08:16:31;;;;;;;12.32;4.00;;;;;;;;;;5053748;28;20055;-74
2022/05/11 08:18:57;;;;;;;6.85;3.40;;;;;;;;;;5053278;28;20389;-75
2022/05/11 08:21:23;;;;;;;11.40;3.33;;;;;;;;;;5017791;28;20033;-77
2022/05/11 08:23:48;;;;;;;8.93;3.40;;;;;;;;;;5024754;28;20374;-77
2022/05/11 08:26:14;;;;;;;13.55;4.90;;;;;;;;;;5032098;28;20036;-77
2022/05/11 08:28:40;;;;;;;14.02;3.78;;;;;;;;;;5007758;28;20026;-77
2022/05/11 08:33:50;;;;;;;14.70;4.00;;;;;;;;;;5018342;28;20030;-77
2022/05/11 08:36:17;;;;;;;11.45;3.85;;;;;;;;;;4999587;28;20472;-76
2022/05/11 08:38:44;;;;;;;12.23;3.55;;;;;;;;;;5012924;28;20036;-76
2022/05/11 08:41:13;;;;;;;25.10;4.50;;;;;;;;;;4992140;28;20033;-71
2022/05/11 08:43:40;;;;;;;9.18;3.33;;;;;;;;;;5017914;28;20055;-72
2022/05/11 08:46:14;;;;;;;7.78;3.15;;;;;;;;;;5026607;28;20025;-74
2022/05/11 08:48:58;;;;;;;8.68;2.80;;;;;;;;;;5001255;28;20064;-73
2022/05/11 08:51:31;;;;;;;9.73;3.33;;;;;;;;;;5024870;28;20033;-73
2022/05/11 08:54:17;;;;;;;76.80;5.68;;;;;;;;;;5023275;28;20026;-72
2022/05/11 08:56:43;;;;;;;8.85;3.10;;;;;;;;;;5010361;28;20026;-75
2022/05/11 08:59:12;;;;;;;7.03;2.70;;;;;;;;;;5030390;28;20560;-75
2022/05/11 09:01:46;;;;;;;10.48;2.72;;;;;;;;;;5016607;28;20094;-72
2022/05/11 09:04:14;;;;;;;5.97;2.60;;;;;;;;;;5010902;28;20026;-79
2022/05/11 09:06:44;;;;;;;6.90;2.60;;;;;;;;;;4994367;28;20033;-73
2022/05/11 09:09:09;;;;;;;6.50;3.00;;;;;;;;;;4999517;28;20033;-72
2022/05/11 09:11:42;;;;;;;10.57;3.05;;;;;;;;;;5027377;28;20025;-74
2022/05/11 09:14:08;;;;;;;7.55;3.15;;;;;;;;;;4990296;28;20619;-76
2022/05/11 09:16:38;;;;;;;5.70;2.78;;;;;;;;;;4986921;28;20136;-76
2022/05/11 09:19:11;;;;;;;6.30;2.72;;;;;;;;;;5029157;28;20516;-76
2022/05/11 09:21:38;;;;;;;5.00;2.78;;;;;;;;;;5016025;28;20033;-76
2022/05/11 09:24:12;;;;;;;5.43;2.90;;;;;;;;;;5005311;28;20026;-78
2022/05/11 09:26:39;;;;;;;6.43;3.15;;;;;;;;;;5006790;28;20053;-76
2022/05/11 09:29:13;;;;;;;9.38;3.00;;;;;;;;;;5006035;28;20034;-76
2022/05/11 09:31:39;;;;;;;9.50;3.08;;;;;;;;;;5009060;28;20060;-76
2022/05/11 09:34:06;;;;;;;6.32;2.95;;;;;;;;;;5018218;28;20052;-75
2022/05/11 09:36:36;;;;;;;4.82;2.85;;;;;;;;;;4997646;28;20394;-75
2022/05/11 09:39:13;;;;;;;10.43;3.00;;;;;;;;;;5030433;28;20033;-75
2022/05/11 09:41:40;;;;;;;5.13;2.97;;;;;;;;;;5030689;28;20037;-75
2022/05/11 09:44:29;;;;;;;5.32;2.90;;;;;;;;;;4997579;28;20072;-74
2022/05/11 09:46:54;;;;;;;;;;;;;;;;;;5030779;28;20079;-74
2022/05/11 09:49:20;;;;;;;12.52;3.13;;;;;;;;;;5030663;28;20268;-75
2022/05/11 09:51:56;;;;;;;9.43;2.67;;;;;;;;;;4997842;28;20022;-75
2022/05/11 09:54:48;;;;;;;5.47;2.90;;;;;;;;;;5005313;28;20029;-75
2022/05/11 09:57:20;;;;;;;6.68;2.85;;;;;;;;;;4997864;28;20052;-74
2022/05/11 09:59:50;;;;;;;5.28;2.60;;;;;;;;;;5013828;28;20052;-74
2022/05/11 10:02:16;;;;;;;8.25;2.95;;;;;;;;;;5030319;28;20037;-74
2022/05/11 10:04:58;;;;;;;10.55;3.08;;;;;;;;;;5023071;28;20040;-74
2022/05/11 10:07:25;;;;;;;14.40;2.92;;;;;;;;;;5022534;28;20561;-74
2022/05/11 10:09:58;;;;;;;11.43;2.90;;;;;;;;;;5004592;28;20030;-74
2022/05/11 10:12:26;;;;;;;5.80;2.90;;;;;;;;;;5019306;28;20030;-74
2022/05/11 10:23:25;;;;;;;9.00;2.67;;;;;;;;;;5016035;28;20034;-74
2022/05/11 10:26:01;;;;;;;6.93;2.70;;;;;;;;;;5015928;28;20168;-74
2022/05/11 10:28:27;;;;;;;6.60;2.97;;;;;;;;;;5006657;28;20500;-74
2022/05/11 10:31:06;;;;;;;7.75;3.00;;;;;;;;;;4982090;28;20034;-75
2022/05/11 10:33:32;;;;;;;4.85;2.88;;;;;;;;;;5023744;28;20030;-74
2022/05/11 10:36:00;;;;;;;14.20;3.72;;;;;;;;;;5018884;28;20068;-73
2022/05/11 10:38:48;;;;;;;5.28;2.65;;;;;;;;;;4984018;28;20156;-75
2022/05/11 10:41:34;;;;;;;6.30;2.53;;;;;;;;;;5026090;28;20038;-75
2022/05/11 10:44:16;;;;;;;10.20;3.35;;;;;;;;;;5019191;28;20294;-74
2022/05/11 10:46:45;;;;;;;8.50;2.22;;;;;;;;;;4998179;28;20030;-75
2022/05/11 10:49:26;;;;;;;7.97;2.50;;;;;;;;;;5029051;28;21126;-74
2022/05/11 10:52:00;;;;;;;5.85;2.35;;;;;;;;;;5018249;28;20049;-74
2022/05/11 10:54:29;;;;;;;7.78;2.80;;;;;;;;;;4993245;28;20101;-75
2022/05/11 10:57:03;;;;;;;6.97;2.30;;;;;;;;;;5011259;28;20473;-75
2022/05/11 10:59:40;;;;;;;9.63;3.05;;;;;;;;;;5018311;28;20041;-74
2022/05/11 11:02:32;;;;;;;5.45;2.40;;;;;;;;;;5008651;28;20021;-74
2022/05/11 11:05:13;;;;;;;7.53;2.28;;;;;;;;;;5008821;28;20392;-73
2022/05/11 11:07:47;;;;;;;5.45;2.20;;;;;;;;;;5025078;28;20037;-74
2022/05/11 11:10:39;;;;;;;6.57;2.10;;;;;;;;;;5020761;28;20034;-74
2022/05/11 11:13:04;;;;;;;11.63;2.40;;;;;;;;;;5029470;28;20088;-74
2022/05/11 11:15:32;;;;;;;6.03;2.10;;;;;;;;;;5033279;28;20436;-75
2022/05/11 11:17:59;;;;;;;14.88;2.63;;;;;;;;;;5034719;28;20026;-73
2022/05/11 11:20:26;;;;;;;5.28;2.70;;;;;;;;;;5017727;28;20038;-75
2022/05/11 11:23:13;;;;;;;3.22;2.15;;;;;;;;;;5017581;28;20029;-74
2022/05/11 11:25:46;;;;;;;5.97;2.25;;;;;;;;;;5016998;28;20030;-75
2022/05/11 11:28:14;;;;;;;9.15;2.80;;;;;;;;;;5026312;28;20030;-74
2022/05/11 11:30:41;;;;;;;6.55;2.58;;;;;;;;;;5033196;28;20041;-74
2022/05/11 11:33:15;;;;;;;3.63;2.20;;;;;;;;;;5032549;28;20242;-74
2022/05/11 11:36:00;;;;;;;6.82;2.22;;;;;;;;;;5033075;28;20412;-75
2022/05/11 11:38:30;;;;;;;5.38;2.45;;;;;;;;;;5034680;28;20033;-74
2022/05/11 11:41:14;;;;;;;5.75;2.63;;;;;;;;;;5016356;28;20037;-75
2022/05/11 11:43:59;;;;;;;8.25;2.20;;;;;;;;;;5008792;28;20029;-74
2022/05/11 11:46:38;;;;;;;9.77;2.40;;;;;;;;;;5032733;28;20029;-74
2022/05/11 11:49:04;;;;;;;9.80;2.80;;;;;;;;;;5000479;28;20041;-76
2022/05/11 11:51:31;;;;;;;7.40;2.72;;;;;;;;;;5032932;28;20029;-75
2022/05/11 11:54:03;;;;;;;5.15;2.42;;;;;;;;;;5017412;28;20045;-75
2022/05/11 11:56:35;;;;;;;9.07;2.42;;;;;;;;;;5032727;28;20021;-75
2022/05/11 11:59:12;;;;;;;5.40;2.13;;;;;;;;;;5024182;28;20021;-75
2022/05/11 12:01:41;;;;;;;7.88;2.50;;;;;;;;;;5007753;28;20034;-74
2022/05/11 12:04:27;;;;;;;6.05;2.80;;;;;;;;;;5016060;28;20029;-74
2022/05/11 12:15:27;;;;;;;3.45;2.20;;;;;;;;;;5015472;28;20064;-75
2022/05/11 12:17:53;;;;;;;5.38;2.63;;;;;;;;;;5016534;28;20080;-73
2022/05/11 12:20:20;;;;;;;8.27;2.38;;;;;;;;;;5032789;28;20052;-75
2022/05/11 12:22:47;;;;;;;4.72;2.30;;;;;;;;;;5015964;28;20112;-74
2022/05/11 12:25:13;;;;;;;15.13;2.63;;;;;;;;;;5034801;28;20044;-75
2022/05/11 12:27:38;;;;;;;10.70;2.30;;;;;;;;;;5032589;28;20068;-74
2022/05/11 12:30:15;;;;;;;7.25;2.60;;;;;;;;;;5015197;28;20048;-74
2022/05/11 12:32:49;;;;;;;3.40;2.27;;;;;;;;;;5009369;28;20116;-75
2022/05/11 12:35:18;;;;;;;4.30;2.50;;;;;;;;;;5017657;28;20034;-74
2022/05/11 12:37:44;;;;;;;3.90;2.25;;;;;;;;;;5032559;28;20515;-74
2022/05/11 12:40:17;;;;;;;4.65;2.25;;;;;;;;;;5015861;28;20041;-75
2022/05/11 12:42:48;;;;;;;7.32;2.53;;;;;;;;;;5032740;28;20040;-74
2022/05/11 12:45:15;;;;;;;8.52;3.03;;;;;;;;;;5030535;28;20034;-74
2022/05/11 12:47:47;;;;;;;4.00;2.37;;;;;;;;;;5007260;28;20022;-74
2022/05/11 12:50:15;;;;;;;10.35;3.10;;;;;;;;;;5015320;28;20273;-75
2022/05/11 12:53:01;;;;;;;9.38;2.60;;;;;;;;;;5016360;28;20060;-75
2022/05/11 12:55:32;;;;;;;7.50;2.63;;;;;;;;;;5031270;28;20079;-73
2022/05/11 12:57:58;;;;;;;5.10;2.47;;;;;;;;;;5031261;28;20025;-74
2022/05/11 13:00:24;;;;;;;3.78;2.13;;;;;;;;;;5031256;28;20029;-75
2022/05/11 13:02:51;;;;;;;4.05;2.55;;;;;;;;;;5013519;28;20029;-73
2022/05/11 13:05:19;;;;;;;5.55;2.10;;;;;;;;;;5006340;28;20427;-74
2022/05/11 13:07:45;;;;;;;7.35;2.30;;;;;;;;;;5014641;28;20596;-74
2022/05/11 13:10:19;;;;;;;6.13;2.42;;;;;;;;;;5030996;28;20113;-74
2022/05/11 13:12:49;;;;;;;9.05;2.38;;;;;;;;;;5013955;28;20445;-74
2022/05/11 13:15:28;;;;;;;7.50;2.67;;;;;;;;;;5014693;28;20057;-73
2022/05/11 13:17:54;;;;;;;3.85;2.13;;;;;;;;;;5031133;28;20053;-74
2022/05/11 13:20:23;;;;;;;4.07;2.15;;;;;;;;;;5029489;28;20083;-73
2022/05/11 13:22:49;;;;;;;3.63;2.03;;;;;;;;;;5024182;28;20022;-73
2022/05/11 13:25:35;;;;;;;13.60;2.97;;;;;;;;;;5032643;28;20064;-75
2022/05/11 13:28:12;;;;;;;6.78;2.28;;;;;;;;;;5031700;28;20031;-74
2022/05/11 13:30:42;;;;;;;4.47;2.25;;;;;;;;;;5031583;28;20026;-74
2022/05/11 13:33:27;;;;;;;5.82;2.15;;;;;;;;;;4998294;28;20491;-74
2022/05/11 13:36:14;;;;;;;5.13;2.08;;;;;;;;;;5005523;28;20056;-74
2022/05/11 13:38:58;;;;;;;5.28;1.98;;;;;;;;;;5010941;28;20034;-74
2022/05/11 13:41:34;;;;;;;11.13;2.65;;;;;;;;;;4994660;28;20038;-74
2022/05/11 13:44:26;;;;;;;5.68;2.60;;;;;;;;;;5011617;28;20041;-74
2022/05/11 13:49:41;;;;;;;10.82;2.63;;;;;;;;;;5027066;28;20034;-75
2022/05/11 13:52:12;;;;;;;7.85;2.55;;;;;;;;;;5024730;28;20025;-74
2022/05/11 13:54:39;;;;;;;3.95;2.20;;;;;;;;;;5012629;28;20025;-75
2022/05/11 13:57:07;;;;;;;7.90;2.33;;;;;;;;;;5011026;28;20037;-74
2022/05/11 13:59:44;;;;;;;6.93;2.45;;;;;;;;;;4995365;28;20033;-74
2022/05/11 14:02:10;;;;;;;5.53;2.60;;;;;;;;;;4994191;28;20579;-74
2022/05/11 14:04:36;;;;;;;7.38;2.80;;;;;;;;;;4993867;28;20529;-74
2022/05/11 14:07:07;;;;;;;3.90;2.15;;;;;;;;;;4998500;28;20061;-75
2022/05/11 14:09:35;;;;;;;6.80;2.30;;;;;;;;;;4996435;28;20037;-74
2022/05/11 14:12:01;;;;;;;6.95;2.67;;;;;;;;;;4995171;28;20108;-75
2022/05/11 14:14:27;;;;;;;4.90;2.13;;;;;;;;;;5022284;22;20042;-75
2022/05/11 14:16:53;;;;;;;7.05;2.10;;;;;;;;;;5011134;28;20329;-76
2022/05/11 14:19:20;;;;;;;6.60;2.35;;;;;;;;;;5010167;28;20121;-76
2022/05/11 14:21:46;;;;;;;8.20;2.38;;;;;;;;;;4993768;28;20061;-77
2022/05/11 14:24:12;;;;;;;6.93;2.03;;;;;;;;;;4999698;28;20045;-76
2022/05/11 14:26:38;;;;;;;6.20;2.15;;;;;;;;;;5004772;28;20398;-76
2022/05/11 14:29:04;;;;;;;6.05;2.45;;;;;;;;;;5031012;28;20032;-76
2022/05/11 14:31:30;;;;;;;8.20;1.90;;;;;;;;;;5031143;28;20455;-76
2022/05/11 14:33:55;;;;;;;9.13;2.50;;;;;;;;;;4996508;28;20044;-76
2022/05/11 14:36:21;;;;;;;9.23;2.15;;;;;;;;;;5029499;28;20028;-76
2022/05/11 14:38:52;;;;;;;5.38;2.10;;;;;;;;;;5012983;28;20472;-76
2022/05/11 14:41:17;;;;;;;8.30;2.30;;;;;;;;;;5014556;28;20158;-76
2022/05/11 14:43:43;;;;;;;6.18;2.00;;;;;;;;;;5022169;28;20026;-76
2022/05/11 14:46:25;;;;;;;8.00;2.10;;;;;;;;;;5030870;28;20033;-76
2022/05/11 14:48:51;;;;;;;5.63;2.28;;;;;;;;;;5029525;28;20033;-77
2022/05/11 14:51:17;;;;;;;4.07;2.22;;;;;;;;;;5034588;28;20082;-77
2022/05/11 14:53:45;;;;;;;5.55;2.10;;;;;;;;;;5034141;28;20488;-77
2022/05/11 14:56:11;;;;;;;4.53;2.10;;;;;;;;;;5033135;28;20476;-76
2022/05/11 15:04:07;;;;;;;8.05;2.35;;;;;;;;;;5032448;28;20159;-76
2022/05/11 15:06:35;;;;;;;7.93;2.50;;;;;;;;;;5034276;28;20033;-77
2022/05/11 15:09:00;;;;;;;;;;;;;;;;;;5034624;28;20040;-76
2022/05/11 15:14:14;;;;;;;5.72;2.03;;;;;;;;;;5032432;28;20556;-76
2022/05/11 15:16:43;;;;;;;6.68;2.42;;;;;;;;;;4990259;28;20025;-75
2022/05/11 15:19:09;;;;;;;11.75;2.75;;;;;;;;;;5008585;28;20037;-76
2022/05/11 15:21:35;;;;;;;5.82;2.00;;;;;;;;;;5032570;28;20026;-77
2022/05/11 15:24:00;;;;;;;6.63;2.08;;;;;;;;;;5033476;28;20496;-76
2022/05/11 15:26:29;;;;;;;6.90;2.40;;;;;;;;;;5032529;28;20036;-76
2022/05/11 15:28:55;;;;;;;6.60;2.10;;;;;;;;;;5016101;28;20045;-77
2022/05/11 15:31:20;;;;;;;4.93;2.30;;;;;;;;;;5034207;28;20431;-77
2022/05/11 15:33:46;;;;;;;9.18;2.47;;;;;;;;;;5022918;28;20021;-76
2022/05/11 15:36:11;;;;;;;7.50;2.30;;;;;;;;;;5025737;28;20021;-77
2022/05/11 15:38:37;;;;;;;4.43;2.30;;;;;;;;;;5016314;28;20080;-75
2022/05/11 15:41:03;;;;;;;4.03;2.08;;;;;;;;;;5032471;28;20036;-76
2022/05/11 15:43:29;;;;;;;4.90;2.13;;;;;;;;;;5032038;28;20052;-76
2022/05/11 15:45:54;;;;;;;4.88;2.28;;;;;;;;;;5033553;28;20029;-76
2022/05/11 15:48:20;;;;;;;8.02;2.13;;;;;;;;;;5033604;28;20432;-76
2022/05/11 15:50:45;;;;;;;5.57;2.00;;;;;;;;;;5026139;28;20455;-76